createdAt,value
2022-09-18T00:00:11.601Z,8.90
2022-09-18T00:02:38.389Z,8.90
2022-09-18T00:05:05.487Z,9.00
2022-09-18T00:07:32.337Z,9.00
2022-09-18T00:09:59.077Z,9.00
2022-09-18T00:12:25.847Z,9.00
2022-09-18T00:14:52.674Z,9.00
2022-09-18T00:17:19.373Z,9.00
2022-09-18T00:19:46.199Z,9.00
2022-09-18T00:22:12.908Z,9.00
2022-09-18T00:24:39.793Z,9.00
2022-09-18T00:27:06.522Z,9.00
2022-09-18T00:29:33.231Z,9.00
2022-09-18T00:32:00.042Z,9.00
2022-09-18T00:34:26.844Z,8.90
2022-09-18T00:36:53.594Z,8.90
2022-09-18T00:39:21.562Z,8.90
2022-09-18T00:41:48.420Z,8.90
2022-09-18T00:44:35.300Z,8.90
2022-09-18T00:47:09.975Z,8.90
2022-09-18T00:50:05.316Z,9.00
2022-09-18T00:52:59.203Z,9.00
2022-09-18T00:55:41.163Z,9.00
2022-09-18T00:58:08.307Z,9.00
2022-09-18T01:00:38.323Z,8.90
2022-09-18T01:03:07.938Z,8.90
2022-09-18T18:13:23.489Z,11.20
2022-09-18T18:15:53.398Z,11.30
2022-09-18T18:18:20.688Z,11.30
2022-09-18T18:20:51.278Z,11.30
2022-09-18T18:23:21.261Z,11.30
2022-09-18T18:25:48.329Z,11.30
2022-09-18T18:28:15.096Z,11.30
2022-09-18T18:30:45.200Z,11.40
2022-09-18T18:33:12.342Z,11.40
2022-09-18T18:35:39.097Z,11.30
2022-09-18T18:38:05.888Z,11.30
2022-09-18T18:40:33.190Z,11.30
2022-09-18T18:42:59.980Z,11.40
2022-09-18T18:45:26.780Z,11.40
2022-09-18T18:47:55.703Z,11.40
2022-09-18T18:50:22.952Z,11.40
2022-09-18T18:52:49.897Z,11.40
2022-09-18T18:55:18.039Z,11.40
2022-09-18T18:57:45.745Z,11.40
2022-09-18T19:00:13.210Z,11.30
2022-09-18T19:02:46.476Z,11.40
2022-09-18T19:05:17.642Z,11.30
2022-09-18T19:07:44.581Z,11.30
2022-09-18T19:10:11.501Z,11.40
2022-09-18T19:12:38.651Z,11.50
2022-09-18T19:15:05.992Z,11.60
2022-09-18T19:17:32.798Z,11.70
2022-09-18T19:19:59.609Z,11.70
2022-09-18T19:22:26.494Z,11.70
2022-09-18T19:24:56.578Z,11.70
2022-09-18T19:27:26.566Z,11.60
2022-09-18T19:29:54.594Z,11.70
2022-09-18T19:32:21.987Z,11.60
2022-09-18T19:34:48.809Z,11.60
2022-09-18T19:37:18.302Z,11.60
2022-09-18T19:47:25.258Z,11.50
2022-09-18T19:49:52.315Z,11.50
2022-09-18T19:52:20.961Z,11.50
2022-09-18T19:54:48.774Z,11.50
2022-09-18T19:57:15.912Z,11.40
2022-09-18T19:59:42.875Z,11.50
2022-09-18T20:02:13.855Z,11.50
2022-09-18T20:04:41.114Z,11.50
2022-09-18T20:07:08.523Z,11.50
2022-09-18T20:09:35.509Z,11.50
2022-09-18T20:12:02.529Z,11.40
2022-09-18T20:14:29.234Z,11.50
2022-09-18T20:16:56.155Z,11.50
2022-09-18T20:19:23.308Z,11.60
2022-09-18T20:21:50.458Z,11.60
2022-09-18T20:24:17.491Z,11.60
2022-09-18T20:26:44.409Z,11.60
2022-09-18T20:29:16.088Z,11.70
2022-09-18T20:31:43.479Z,11.60
2022-09-18T20:34:11.107Z,11.70
2022-09-18T20:36:38.193Z,11.70
2022-09-18T20:39:05.288Z,11.70
2022-09-18T20:41:32.150Z,11.70
2022-09-18T20:44:04.893Z,11.60
2022-09-18T20:46:36.329Z,11.70
2022-09-18T20:49:04.117Z,11.60
2022-09-18T20:51:37.645Z,11.60
2022-09-18T20:54:08.089Z,11.70
2022-09-18T20:56:36.347Z,11.70
2022-09-18T20:59:07.586Z,11.70
2022-09-18T21:01:41.996Z,11.70
2022-09-18T21:04:12.471Z,11.70
2022-09-18T21:06:41.501Z,11.70
2022-09-18T21:09:08.949Z,11.70
2022-09-18T21:11:40.928Z,11.70
2022-09-18T21:14:08.485Z,11.70
2022-09-18T21:16:43.106Z,11.70
2022-09-18T21:19:14.724Z,11.70
2022-09-18T21:21:41.517Z,11.70
2022-09-18T21:24:09.195Z,11.70
2022-09-18T21:26:43.637Z,11.70
2022-09-18T21:29:20.681Z,11.70
2022-09-18T21:31:48.586Z,11.70
2022-09-18T21:34:24.299Z,11.60
2022-09-18T21:36:52.089Z,11.60
2022-09-18T21:39:19.926Z,11.60
2022-09-18T21:41:47.672Z,11.50
2022-09-18T21:44:15.753Z,11.50
2022-09-18T21:46:45.922Z,11.50
2022-09-18T21:49:14.904Z,11.50
2022-09-18T21:51:41.723Z,11.50
2022-09-18T21:54:12.050Z,11.50
2022-09-18T21:56:38.801Z,11.50
2022-09-18T21:59:05.663Z,11.60
2022-09-18T22:01:33.437Z,11.50
2022-09-18T22:04:02.233Z,11.60
2022-09-18T22:06:30.874Z,11.60
2022-09-18T22:08:58.461Z,11.60
2022-09-18T22:11:29.825Z,11.60
2022-09-18T22:14:01.325Z,11.60
2022-09-18T22:16:29.526Z,11.50
2022-09-18T22:18:56.634Z,11.50
2022-09-18T22:21:31.490Z,11.50
2022-09-18T22:24:06.407Z,11.50
2022-09-18T22:26:38.971Z,11.60
2022-09-18T22:29:07.496Z,11.60
2022-09-18T22:31:35.915Z,11.50
2022-09-18T22:34:02.800Z,11.50
2022-09-18T22:36:29.646Z,11.60
2022-09-18T22:38:56.715Z,11.50
2022-09-18T22:41:23.700Z,11.50
2022-09-18T22:43:55.066Z,11.50
2022-09-18T22:46:22.179Z,11.50
2022-09-18T22:48:49.606Z,11.50
2022-09-18T22:51:20.535Z,11.50
2022-09-18T22:53:55.055Z,11.50
2022-09-18T22:56:22.416Z,11.50
2022-09-18T22:58:49.532Z,11.50
2022-09-18T23:01:23.484Z,11.50
2022-09-18T23:03:52.386Z,11.50
2022-09-18T23:06:21.627Z,11.40
2022-09-18T23:08:51.974Z,11.40
2022-09-18T23:11:21.635Z,11.30
2022-09-18T23:13:53.346Z,11.30
2022-09-18T23:16:20.592Z,11.30
2022-09-18T23:18:53.118Z,11.20
2022-09-18T23:21:20.601Z,11.20
2022-09-18T23:23:48.413Z,11.10
2022-09-18T23:26:23.266Z,11.10
2022-09-18T23:28:54.570Z,11.00
2022-09-18T23:31:24.393Z,11.00
2022-09-18T23:33:52.708Z,10.90
2022-09-18T23:36:20.485Z,10.90
2022-09-18T23:38:47.717Z,10.90
2022-09-18T23:41:15.538Z,10.90
2022-09-18T23:43:46.885Z,10.80
2022-09-18T23:46:13.713Z,10.80
2022-09-18T23:48:40.557Z,10.90
2022-09-18T23:51:07.432Z,10.80
2022-09-18T23:53:38.031Z,10.80
2022-09-18T23:56:07.273Z,10.80
2022-09-18T23:58:34.084Z,10.90
